Pond Gap, West Virginia
Current Conditions -  °F | °C
As of 1:54 AM on Friday 28 Nov 2014 (Local Time) from KCRW Reporting Station
Light Snow Light Snow  
Wind Chill: 24°   Ceiling: 5500
Heat Index: 30°   Visibility: 6mi
Dew Point: 24°   Wind: 6mph
Humidity: 79%   Direction: 270°W
Pressure: 30.32"   Gusts: NA
Location:  38.28°N, 81.28°W
Report Text: KCRW 280654Z 27005KT 6SM -SN FEW017 OVC055 M01/M04 A3032 RMK AO2 SLP277 P0000 T10111044
Loading
Personal Weather Stations






























Interactive Weather Map New forecast layout! Learn more

10-Day Weather Forecast

Advertisements
Track Severe Weather on mobile